Time;durP1;ratioP1;P1;durP2;ratioP2;P2;SDS_P1;SDS_P2;PMS_P1;PMS_P2;Temp;Humidity;BMP_temperature;BMP_pressure;BME280_temperature;BME280_humidity;BME280_pressure;Samples;Min_cycle;Max_cycle;Signal;HPM_P1;HPM_P2
2023/08/05 00:00:01;;;;;;;4.38;3.05;;;15.50;1.00;;;;;;5023974;28;20191;-73
2023/08/05 00:02:26;;;;;;;4.90;3.30;;;15.50;99.90;;;;;;5023922;28;20393;-73
2023/08/05 00:04:53;;;;;;;5.55;3.30;;;15.50;1.00;;;;;;5023500;28;20706;-74
2023/08/05 00:07:32;;;;;;;4.65;3.33;;;15.50;61.30;;;;;;5023453;28;20206;-73
2023/08/05 00:09:57;;;;;;;3.30;2.67;;;15.50;30.00;;;;;;5023888;28;20178;-73
2023/08/05 00:12:24;;;;;;;3.28;3.05;;;15.50;1.00;;;;;;5023836;28;20232;-74
2023/08/05 00:14:50;;;;;;;5.25;3.28;;;15.50;42.30;;;;;;5023658;28;20187;-73
2023/08/05 00:17:15;;;;;;;5.07;3.63;;;15.50;1.00;;;;;;5023449;28;20692;-73
2023/08/05 00:19:42;;;;;;;4.47;3.05;;;15.50;1.00;;;;;;5023885;28;20277;-73
2023/08/05 00:22:08;;;;;;;3.33;3.10;;;15.40;99.90;;;;;;5023303;28;20179;-73
2023/08/05 00:24:34;;;;;;;3.70;3.28;;;15.40;1.00;;;;;;5023844;28;21512;-73
2023/08/05 00:26:59;;;;;;;4.75;3.53;;;15.40;99.90;;;;;;5022386;28;20229;-73
2023/08/05 00:29:25;;;;;;;5.28;3.45;;;15.30;99.90;;;;;;5023508;28;20190;-73
2023/08/05 00:31:51;;;;;;;6.40;3.28;;;15.30;99.90;;;;;;5023220;28;20187;-73
2023/08/05 00:34:16;;;;;;;6.07;3.85;;;15.40;99.90;;;;;;5024194;28;20269;-73
2023/08/05 00:36:42;;;;;;;5.82;3.40;;;15.40;99.90;;;;;;5024110;28;20210;-74
2023/08/05 00:39:07;;;;;;;4.63;3.13;;;15.40;98.80;;;;;;5024709;28;21061;-74
2023/08/05 00:41:33;;;;;;;3.42;3.00;;;15.50;99.90;;;;;;5023821;28;20187;-73
2023/08/05 00:43:59;;;;;;;3.35;2.88;;;15.50;1.00;;;;;;5024513;28;20254;-74
2023/08/05 00:46:25;;;;;;;3.92;3.63;;;15.50;1.00;;;;;;5022631;28;20211;-74
2023/08/05 00:48:52;;;;;;;7.50;4.07;;;15.40;99.90;;;;;;5024518;28;20210;-74
2023/08/05 00:51:20;;;;;;;7.70;3.55;;;15.30;99.90;;;;;;5027925;28;20178;-74
2023/08/05 00:53:47;;;;;;;4.55;3.30;;;15.20;1.00;;;;;;5027873;28;20329;-73
2023/08/05 00:56:14;;;;;;;3.85;3.53;;;15.20;1.00;;;;;;5026781;28;20205;-74
2023/08/05 00:58:41;;;;;;;3.75;3.40;;;15.10;1.00;;;;;;5028056;28;20718;-73
2023/08/05 01:01:07;;;;;;;4.88;3.85;;;15.20;99.90;;;;;;5027686;28;20706;-73
2023/08/05 01:03:32;;;;;;;6.95;4.00;;;15.10;99.90;;;;;;5027769;28;20278;-74
2023/08/05 01:05:59;;;;;;;6.53;4.13;;;15.10;1.00;;;;;;5027030;28;20186;-73
2023/08/05 01:08:24;;;;;;;4.68;3.47;;;15.10;45.00;;;;;;5026915;28;20245;-74
2023/08/05 01:10:50;;;;;;;4.30;3.72;;;15.10;99.90;;;;;;5027558;28;20222;-74
2023/08/05 01:13:15;;;;;;;4.28;3.70;;;15.10;1.00;;;;;;5027959;28;20650;-73
2023/08/05 01:15:41;;;;;;;5.80;3.97;;;15.00;99.90;;;;;;5027311;28;20194;-73
2023/08/05 01:18:09;;;;;;;4.78;4.28;;;15.00;1.00;;;;;;5028221;28;20215;-73
2023/08/05 01:20:42;;;;;;;5.43;4.13;;;15.00;1.00;;;;;;5025092;28;20195;-73
2023/08/05 01:23:20;;;;;;;5.80;4.30;;;14.90;1.00;;;;;;5027880;28;20214;-73
2023/08/05 01:25:46;;;;;;;4.32;3.92;;;14.90;99.90;;;;;;5026560;28;20183;-73
2023/08/05 01:28:14;;;;;;;5.40;4.28;;;14.90;1.00;;;;;;5027491;28;20583;-74
2023/08/05 01:30:41;;;;;;;6.80;4.20;;;14.90;1.00;;;;;;5027570;28;20731;-74
2023/08/05 01:33:08;;;;;;;5.90;4.45;;;14.80;1.00;;;;;;5026873;28;20191;-73
2023/08/05 01:35:34;;;;;;;7.15;4.25;;;14.80;1.00;;;;;;5015205;28;20182;-73
2023/08/05 01:37:59;;;;;;;7.45;4.18;;;14.80;1.00;;;;;;5025251;28;20211;-73
2023/08/05 01:40:28;;;;;;;5.57;3.80;;;14.70;1.00;;;;;;5018227;28;20533;-73
2023/08/05 01:42:57;;;;;;;4.55;3.65;;;14.80;99.90;;;;;;5026990;28;20682;-73
2023/08/05 01:45:24;;;;;;;4.68;4.28;;;14.80;99.90;;;;;;5024763;28;20206;-73
2023/08/05 01:47:50;;;;;;;4.35;3.65;;;14.70;1.00;;;;;;5025622;28;20218;-73
2023/08/05 01:50:15;;;;;;;4.25;3.83;;;14.70;1.00;;;;;;5026968;28;20206;-73
2023/08/05 01:52:41;;;;;;;5.03;3.65;;;14.60;1.00;;;;;;5026845;28;20279;-73
2023/08/05 01:55:07;;;;;;;5.47;3.83;;;14.60;99.90;;;;;;5025954;28;20185;-73
2023/08/05 01:57:32;;;;;;;3.85;3.50;;;14.60;1.00;;;;;;5026492;28;20218;-74
2023/08/05 01:59:58;;;;;;;4.05;3.42;;;14.50;1.00;;;;;;5026260;28;20540;-73
2023/08/05 02:02:23;;;;;;;7.32;3.92;;;14.70;1.00;;;;;;5025651;28;20202;-74
2023/08/05 02:04:49;;;;;;;4.05;3.65;;;14.50;1.00;;;;;;5026149;28;20627;-73
2023/08/05 02:07:15;;;;;;;4.00;3.47;;;14.50;9.80;;;;;;5025938;28;20317;-74
2023/08/05 02:09:40;;;;;;;4.63;3.88;;;14.50;1.00;;;;;;5026322;28;20237;-73
2023/08/05 02:12:06;;;;;;;4.32;3.92;;;14.50;1.00;;;;;;5025898;28;20183;-74
2023/08/05 02:14:32;;;;;;;4.20;3.80;;;14.40;1.00;;;;;;5026675;28;20613;-73
2023/08/05 02:16:57;;;;;;;4.70;4.30;;;14.40;1.00;;;;;;5026386;28;20312;-74
2023/08/05 02:19:23;;;;;;;6.32;4.18;;;14.40;99.90;;;;;;5026485;28;20362;-74
2023/08/05 02:21:49;;;;;;;5.22;4.32;;;14.50;99.90;;;;;;5026626;28;20183;-74
2023/08/05 02:24:14;;;;;;;5.43;4.05;;;14.40;1.00;;;;;;5026211;28;20245;-74
2023/08/05 02:26:41;;;;;;;6.93;4.25;;;14.50;99.90;;;;;;5024534;28;20219;-74
2023/08/05 02:29:07;;;;;;;3.65;3.30;;;14.20;99.90;;;;;;5025833;28;20233;-73
2023/08/05 02:31:33;;;;;;;4.95;4.10;;;14.30;99.90;;;;;;5025860;28;20187;-74
2023/08/05 02:33:58;;;;;;;3.97;3.45;;;14.10;1.00;;;;;;5025959;28;20744;-74
2023/08/05 02:36:24;;;;;;;4.35;3.90;;;14.20;99.90;;;;;;5025198;28;20207;-74
2023/08/05 02:38:50;;;;;;;3.80;3.50;;;14.20;1.00;;;;;;5025271;28;20273;-74
2023/08/05 02:41:15;;;;;;;5.00;4.20;;;14.60;11.60;;;;;;5025879;28;20270;-74
2023/08/05 02:43:41;;;;;;;5.75;3.80;;;14.20;1.00;;;;;;5025436;28;20712;-74
2023/08/05 02:46:07;;;;;;;4.90;4.30;;;13.30;99.90;;;;;;5024969;28;20203;-73
2023/08/05 02:48:33;;;;;;;5.03;3.80;;;14.10;1.00;;;;;;5025445;28;20207;-74
2023/08/05 02:50:58;;;;;;;3.97;3.67;;;14.00;1.00;;;;;;5025404;28;20186;-73
2023/08/05 02:53:24;;;;;;;4.00;3.45;;;13.80;99.90;;;;;;5025121;28;20264;-73
2023/08/05 02:55:50;;;;;;;4.97;3.30;;;13.90;1.00;;;;;;5024960;28;20186;-73
2023/08/05 02:58:16;;;;;;;3.45;3.17;;;14.00;1.00;;;;;;5025646;28;20186;-73
2023/08/05 03:00:41;;;;;;;3.42;3.13;;;14.00;99.90;;;;;;5025364;28;20186;-73
2023/08/05 03:03:08;;;;;;;7.20;3.55;;;14.10;99.90;;;;;;5025171;28;20309;-74
2023/08/05 03:05:34;;;;;;;3.47;3.17;;;14.40;99.90;;;;;;5024886;28;20662;-73
2023/08/05 03:08:00;;;;;;;3.65;3.10;;;13.80;99.90;;;;;;5024930;28;20272;-73
2023/08/05 03:10:25;;;;;;;3.70;3.30;;;13.80;99.90;;;;;;5024738;28;20187;-73
2023/08/05 03:12:51;;;;;;;2.60;2.40;;;13.80;99.90;;;;;;5024455;28;20194;-73
2023/08/05 03:15:17;;;;;;;3.75;2.88;;;13.90;99.90;;;;;;5024643;28;20193;-74
2023/08/05 03:17:42;;;;;;;3.70;3.10;;;13.70;99.90;;;;;;5023387;28;20207;-73
2023/08/05 03:20:30;;;;;;;2.88;2.67;;;13.60;1.00;;;;;;5025037;28;20187;-73
2023/08/05 03:22:56;;;;;;;4.95;3.08;;;13.50;99.90;;;;;;5024562;28;20178;-73
2023/08/05 03:25:23;;;;;;;3.70;3.40;;;13.60;99.90;;;;;;5024077;28;20208;-74
2023/08/05 03:27:49;;;;;;;2.83;2.58;;;11.70;96.20;;;;;;5024792;28;20233;-73
2023/08/05 03:30:15;;;;;;;4.00;2.67;;;13.70;99.90;;;;;;5024850;28;20189;-73
2023/08/05 03:32:41;;;;;;;7.68;4.25;;;13.90;99.90;;;;;;5024663;28;20741;-73
2023/08/05 03:35:07;;;;;;;4.45;2.58;;;13.70;99.90;;;;;;5024019;28;20187;-73
2023/08/05 03:37:33;;;;;;;5.15;3.65;;;13.60;1.00;;;;;;5024016;28;20565;-74
2023/08/05 03:39:59;;;;;;;5.25;3.83;;;13.50;99.90;;;;;;5024759;28;20187;-74
2023/08/05 03:42:25;;;;;;;6.75;3.60;;;13.40;49.40;;;;;;5024762;28;20262;-73
2023/08/05 03:44:51;;;;;;;6.53;3.85;;;13.50;1.00;;;;;;5024838;28;20190;-73
2023/08/05 03:47:17;;;;;;;6.70;3.80;;;13.50;99.90;;;;;;5022633;28;20222;-73
2023/08/05 03:49:42;;;;;;;3.95;3.55;;;13.40;1.00;;;;;;5024571;28;20187;-73
2023/08/05 03:52:08;;;;;;;10.00;4.80;;;13.30;99.90;;;;;;5024331;28;20254;-73
2023/08/05 03:54:34;;;;;;;7.65;4.53;;;13.40;1.00;;;;;;5024295;28;20183;-74
2023/08/05 03:57:02;;;;;;;5.32;4.35;;;13.40;1.00;;;;;;5023152;28;20219;-73
2023/08/05 03:59:28;;;;;;;16.08;5.20;;;13.40;99.90;;;;;;5024296;28;20183;-73
2023/08/05 04:01:54;;;;;;;12.90;4.32;;;13.50;99.90;;;;;;5024192;28;20199;-73
2023/08/05 04:04:19;;;;;;;14.65;4.13;;;13.60;1.00;;;;;;5024179;28;20186;-73
2023/08/05 04:06:45;;;;;;;5.28;3.90;;;13.50;99.90;;;;;;5023301;28;20706;-73
2023/08/05 04:09:13;;;;;;;4.47;3.58;;;13.60;1.00;;;;;;5024190;28;20179;-73
2023/08/05 04:11:39;;;;;;;6.50;3.67;;;13.70;1.00;;;;;;5024380;28;20174;-73
2023/08/05 04:14:05;;;;;;;3.88;3.53;;;13.80;99.90;;;;;;5024656;28;20193;-73
2023/08/05 04:16:31;;;;;;;3.35;3.05;;;14.30;1.00;;;;;;5016554;28;21290;-74
2023/08/05 04:19:00;;;;;;;6.65;4.07;;;14.10;99.90;;;;;;5024348;28;20191;-73
2023/08/05 04:21:30;;;;;;;3.78;3.47;;;14.10;99.90;;;;;;5024339;28;20597;-73
2023/08/05 04:23:55;;;;;;;3.50;3.20;;;14.20;37.80;;;;;;5024210;28;20180;-73
2023/08/05 04:26:21;;;;;;;4.25;3.20;;;14.30;99.90;;;;;;5023591;28;20253;-74
2023/08/05 04:28:47;;;;;;;4.50;3.70;;;14.30;99.90;;;;;;5024282;28;20183;-74
2023/08/05 04:31:13;;;;;;;4.82;3.90;;;14.40;89.60;;;;;;5023619;28;20643;-74
2023/08/05 04:33:39;;;;;;;7.85;4.57;;;14.40;1.00;;;;;;5023569;28;20231;-74
2023/08/05 04:36:05;;;;;;;4.35;3.58;;;14.50;1.00;;;;;;5019293;28;20658;-74
2023/08/05 04:38:30;;;;;;;4.00;3.05;;;14.50;86.40;;;;;;5023811;28;20195;-74
2023/08/05 04:40:57;;;;;;;4.22;3.70;;;14.50;1.00;;;;;;5024383;28;20305;-74
2023/08/05 04:43:23;;;;;;;4.30;4.00;;;14.60;3.10;;;;;;5023080;28;20245;-74
2023/08/05 04:45:50;;;;;;;5.38;4.72;;;14.70;1.00;;;;;;5023586;28;20639;-73
2023/08/05 04:48:17;;;;;;;6.18;4.68;;;14.70;1.00;;;;;;5023410;28;20212;-73
2023/08/05 04:50:43;;;;;;;5.63;4.30;;;14.80;23.60;;;;;;5023789;28;20678;-73
2023/08/05 04:53:11;;;;;;;6.10;4.30;;;14.90;1.00;;;;;;5023903;28;20175;-73
2023/08/05 04:55:38;;;;;;;5.82;4.60;;;14.80;1.00;;;;;;5022957;28;20264;-74
2023/08/05 04:58:04;;;;;;;5.40;4.90;;;14.80;32.70;;;;;;5023411;28;20257;-75
2023/08/05 05:00:30;;;;;;;5.95;5.00;;;14.80;52.00;;;;;;5023370;28;20183;-74
2023/08/05 05:02:56;;;;;;;5.45;4.95;;;14.90;99.90;;;;;;5023237;28;20272;-74
2023/08/05 05:05:21;;;;;;;5.82;5.10;;;15.00;99.90;;;;;;5023312;28;20191;-74
2023/08/05 05:07:47;;;;;;;4.85;4.32;;;15.00;99.90;;;;;;5023220;28;20219;-74
2023/08/05 05:10:12;;;;;;;5.88;4.40;;;15.10;96.40;;;;;;5023979;28;20190;-74
2023/08/05 05:12:38;;;;;;;4.47;4.07;;;15.20;1.00;;;;;;5024123;28;20187;-73
2023/08/05 05:15:04;;;;;;;4.88;4.13;;;15.20;99.90;;;;;;5023069;28;20661;-75
2023/08/05 05:17:37;;;;;;;6.45;4.63;;;15.20;91.60;;;;;;5023648;28;20214;-74
2023/08/05 05:20:05;;;;;;;8.00;6.38;;;15.20;99.90;;;;;;5023679;28;20191;-74
2023/08/05 05:22:33;;;;;;;5.40;4.90;;;15.30;1.00;;;;;;5023563;28;20211;-73
2023/08/05 05:24:59;;;;;;;7.55;5.68;;;15.30;99.90;;;;;;5013415;28;20241;-73
2023/08/05 05:27:25;;;;;;;8.18;6.80;;;15.40;1.00;;;;;;5022467;28;20246;-74
2023/08/05 05:29:51;;;;;;;8.05;6.43;;;15.50;1.00;;;;;;5023535;28;20186;-73
2023/08/05 05:32:16;;;;;;;9.02;7.03;;;15.60;79.40;;;;;;5023168;28;20274;-73
2023/08/05 05:34:42;;;;;;;7.53;6.32;;;15.60;1.00;;;;;;5023234;28;20190;-74
2023/08/05 05:37:07;;;;;;;8.23;6.00;;;15.70;99.90;;;;;;5025230;28;20195;-73
2023/08/05 05:39:33;;;;;;;6.68;5.60;;;15.80;29.60;;;;;;5027024;28;20285;-74
2023/08/05 05:41:59;;;;;;;7.05;6.28;;;15.90;38.90;;;;;;5026464;28;20195;-74
2023/08/05 05:44:27;;;;;;;6.18;5.10;;;16.00;1.00;;;;;;5027054;28;20190;-74
2023/08/05 05:46:53;;;;;;;5.93;5.18;;;16.10;99.90;;;;;;5025758;28;20297;-74
2023/08/05 05:49:19;;;;;;;4.95;4.53;;;16.30;1.00;;;;;;5026299;28;20258;-74
2023/08/05 05:51:48;;;;;;;10.18;6.22;;;16.50;1.00;;;;;;5026400;28;20179;-73
2023/08/05 05:54:15;;;;;;;8.73;6.22;;;17.00;1.00;;;;;;5026569;28;20985;-75
2023/08/05 05:56:40;;;;;;;7.32;5.70;;;17.00;1.00;;;;;;5025736;28;20206;-75
2023/08/05 05:59:06;;;;;;;5.18;4.72;;;18.00;99.90;;;;;;5025104;28;20198;-73
2023/08/05 06:01:32;;;;;;;7.40;4.60;;;19.70;1.00;;;;;;5024675;28;20199;-74
2023/08/05 06:03:57;;;;;;;4.93;4.40;;;20.10;1.00;;;;;;5025276;28;20186;-74
2023/08/05 06:06:23;;;;;;;4.50;4.10;;;19.80;99.90;;;;;;5023876;28;20581;-74
2023/08/05 06:08:49;;;;;;;5.88;4.25;;;19.60;99.90;;;;;;5024296;28;20179;-75
2023/08/05 06:11:14;;;;;;;5.38;4.82;;;19.50;99.90;;;;;;5023905;28;20223;-73
2023/08/05 06:13:40;;;;;;;6.63;4.90;;;19.20;99.90;;;;;;5024908;28;20222;-74
2023/08/05 06:16:06;;;;;;;5.63;4.60;;;18.80;99.90;;;;;;5023711;28;20195;-74
2023/08/05 06:18:31;;;;;;;5.40;4.80;;;18.50;1.00;;;;;;5024094;28;20194;-74
2023/08/05 06:20:57;;;;;;;5.95;4.60;;;18.30;1.00;;;;;;5025538;28;20195;-74
2023/08/05 06:23:23;;;;;;;6.22;5.15;;;18.20;1.00;;;;;;5025853;28;20179;-73
2023/08/05 06:25:48;;;;;;;6.70;5.10;;;18.10;1.00;;;;;;5024760;28;20190;-73
2023/08/05 06:28:14;;;;;;;6.65;5.18;;;18.00;1.00;;;;;;5025244;28;20214;-73
2023/08/05 06:30:46;;;;;;;5.57;5.00;;;17.90;1.00;;;;;;5026201;28;20187;-73
2023/08/05 06:33:12;;;;;;;7.05;5.15;;;17.80;1.00;;;;;;5025341;28;20217;-72
2023/08/05 06:35:38;;;;;;;6.20;4.57;;;17.80;1.00;;;;;;5024556;28;20515;-74
2023/08/05 06:38:04;;;;;;;6.95;4.10;;;17.80;6.30;;;;;;5025504;28;20662;-74
2023/08/05 06:40:29;;;;;;;4.97;4.10;;;18.10;1.00;;;;;;5025303;28;20244;-74
2023/08/05 06:42:56;;;;;;;4.72;3.90;;;18.40;1.00;;;;;;5024163;28;20278;-75
2023/08/05 06:45:22;;;;;;;4.78;4.00;;;20.20;1.00;;;;;;5025100;28;20186;-74
2023/08/05 06:47:49;;;;;;;4.57;3.40;;;22.70;43.40;;;;;;5025002;28;20567;-73
2023/08/05 06:50:15;;;;;;;3.30;2.78;;;24.20;1.00;;;;;;5024432;28;20190;-73
2023/08/05 06:52:40;;;;;;;4.88;2.60;;;25.10;1.00;;;;;;5026140;28;20655;-73
2023/08/05 06:55:08;;;;;;;4.07;2.50;;;26.80;1.00;;;;;;5025197;28;20187;-73
2023/08/05 06:57:34;;;;;;;3.00;2.53;;;28.10;1.00;;;;;;5024594;28;20206;-74
2023/08/05 07:00:00;;;;;;;3.20;2.55;;;29.60;1.00;;;;;;5025213;28;20194;-73
2023/08/05 07:02:26;;;;;;;5.30;2.60;;;29.90;99.90;;;;;;5024728;28;20206;-73
2023/08/05 07:04:53;;;;;;;3.50;2.42;;;30.10;99.90;;;;;;5024642;28;20607;-73
2023/08/05 07:07:18;;;;;;;4.70;2.05;;;30.20;99.90;;;;;;5024353;28;20705;-73
2023/08/05 07:09:44;;;;;;;3.60;2.42;;;30.00;99.90;;;;;;5024822;28;20222;-73
2023/08/05 07:12:10;;;;;;;3.05;2.45;;;29.40;99.90;;;;;;5025353;28;20179;-73
2023/08/05 07:14:36;;;;;;;4.65;2.50;;;29.10;99.90;;;;;;5010062;28;20182;-73
2023/08/05 07:17:01;;;;;;;3.03;1.95;;;29.10;99.90;;;;;;5024487;28;20199;-74
2023/08/05 07:19:27;;;;;;;3.38;1.95;;;28.90;99.90;;;;;;5024589;28;20266;-74
2023/08/05 07:21:53;;;;;;;3.85;1.85;;;28.60;99.90;;;;;;5025455;28;20218;-74
2023/08/05 07:24:19;;;;;;;3.28;1.85;;;27.80;99.90;;;;;;5025015;28;20223;-73
2023/08/05 07:26:45;;;;;;;3.65;1.80;;;26.50;99.90;;;;;;5024075;28;20235;-74
2023/08/05 07:29:10;;;;;;;3.97;2.30;;;24.80;99.90;;;;;;5024726;28;20234;-73
2023/08/05 07:31:37;;;;;;;2.85;1.95;;;23.60;99.90;;;;;;5024942;28;20221;-74
2023/08/05 07:34:04;;;;;;;3.00;1.85;;;22.60;99.90;;;;;;5025107;28;20191;-74
2023/08/05 07:36:31;;;;;;;4.63;1.90;;;21.80;99.90;;;;;;5024037;28;20226;-74
2023/08/05 07:38:58;;;;;;;2.55;1.75;;;21.20;99.90;;;;;;5024354;28;20645;-74
2023/08/05 07:41:26;;;;;;;3.13;1.65;;;20.80;99.90;;;;;;5024572;28;20300;-73
2023/08/05 07:43:57;;;;;;;2.80;1.67;;;20.50;99.90;;;;;;5018125;28;20198;-72
2023/08/05 07:46:36;;;;;;;4.25;2.05;;;19.70;99.90;;;;;;5024565;28;20257;-74
2023/08/05 07:49:03;;;;;;;3.53;1.80;;;19.40;99.90;;;;;;5024470;28;20288;-73
2023/08/05 07:51:30;;;;;;;2.95;1.90;;;19.20;1.00;;;;;;5023635;28;20202;-74
2023/08/05 07:53:57;;;;;;;2.65;1.75;;;19.10;1.00;;;;;;5024820;28;20222;-74
2023/08/05 07:56:23;;;;;;;3.70;1.63;;;19.10;1.00;;;;;;5023387;28;20207;-73
2023/08/05 07:58:49;;;;;;;6.35;1.98;;;19.00;1.00;;;;;;5023794;28;20193;-73
2023/08/05 08:01:19;;;;;;;3.38;1.58;;;19.00;1.00;;;;;;5023429;28;20210;-73
2023/08/05 08:03:46;;;;;;;4.25;1.90;;;18.60;1.00;;;;;;5022139;28;20775;-73
2023/08/05 08:06:15;;;;;;;3.03;2.00;;;18.70;1.00;;;;;;5023007;28;20708;-74
2023/08/05 08:08:42;;;;;;;3.28;1.73;;;18.70;1.00;;;;;;5024722;28;20328;-74
2023/08/05 08:11:09;;;;;;;1.55;1.30;;;18.90;1.00;;;;;;5023860;28;20190;-73
2023/08/05 08:13:36;;;;;;;2.40;1.73;;;19.00;1.00;;;;;;5023844;28;21187;-74
2023/08/05 08:16:02;;;;;;;2.85;1.70;;;19.20;1.00;;;;;;5023669;28;20193;-74
2023/08/05 08:18:27;;;;;;;2.45;1.58;;;19.20;1.00;;;;;;5024311;28;20194;-73
2023/08/05 08:20:53;;;;;;;3.25;1.95;;;19.30;1.00;;;;;;5024782;28;20190;-73
2023/08/05 08:23:19;;;;;;;3.55;1.70;;;19.00;1.00;;;;;;5024233;28;20222;-73
2023/08/05 08:25:45;;;;;;;3.22;1.50;;;18.90;1.00;;;;;;5022918;28;20190;-72
2023/08/05 08:28:11;;;;;;;2.97;1.38;;;18.90;1.00;;;;;;5024269;28;20218;-73
2023/08/05 08:30:36;;;;;;;3.55;1.38;;;18.70;1.00;;;;;;5024855;28;20658;-74
2023/08/05 08:33:03;;;;;;;3.53;1.60;;;18.80;1.00;;;;;;5021085;28;20264;-72
2023/08/05 08:35:29;;;;;;;3.58;1.70;;;18.80;1.00;;;;;;5023307;28;21158;-73
2023/08/05 08:37:54;;;;;;;2.40;1.40;;;18.90;1.00;;;;;;5023722;28;20211;-73
2023/08/05 08:40:20;;;;;;;3.10;1.75;;;18.80;1.00;;;;;;5024045;28;20218;-72
2023/08/05 08:42:49;;;;;;;4.15;1.85;;;18.90;1.00;;;;;;5024422;28;20194;-73
2023/08/05 08:45:15;;;;;;;1.63;1.45;;;19.10;1.00;;;;;;5023056;28;20193;-73
2023/08/05 08:47:44;;;;;;;3.15;1.70;;;19.10;1.00;;;;;;5023332;28;20207;-73
2023/08/05 08:50:11;;;;;;;5.05;1.85;;;19.20;1.00;;;;;;5023796;28;20210;-72
2023/08/05 08:52:40;;;;;;;2.05;1.73;;;19.30;1.00;;;;;;5023963;28;20187;-73
2023/08/05 08:55:07;;;;;;;3.30;1.85;;;19.20;1.00;;;;;;5022060;28;20682;-72
2023/08/05 08:57:32;;;;;;;2.75;1.77;;;19.20;1.00;;;;;;5023186;28;20293;-71
2023/08/05 08:59:58;;;;;;;3.10;1.88;;;19.30;1.00;;;;;;5023987;28;20274;-73
2023/08/05 09:02:24;;;;;;;3.15;1.70;;;19.20;1.00;;;;;;5022825;28;20675;-73
2023/08/05 09:04:54;;;;;;;2.65;1.90;;;19.20;1.00;;;;;;5023404;28;20183;-73
2023/08/05 09:07:26;;;;;;;3.00;2.28;;;19.30;1.00;;;;;;5023287;28;20207;-72
2023/08/05 09:09:52;;;;;;;4.38;1.88;;;19.40;1.00;;;;;;5023802;28;20673;-72
2023/08/05 09:12:17;;;;;;;3.08;1.83;;;19.50;1.00;;;;;;5027065;28;20187;-73
2023/08/05 09:14:43;;;;;;;4.05;1.95;;;19.60;1.00;;;;;;5026868;28;20182;-73
2023/08/05 09:17:12;;;;;;;2.17;1.88;;;19.70;1.00;;;;;;5025021;28;20207;-72
2023/08/05 09:19:42;;;;;;;3.40;1.90;;;19.90;1.00;;;;;;5026872;28;20241;-72
2023/08/05 09:22:07;;;;;;;2.17;1.65;;;20.10;1.00;;;;;;5027493;28;20202;-73
2023/08/05 09:24:34;;;;;;;3.60;1.70;;;20.20;1.00;;;;;;5026164;28;20179;-73
2023/08/05 09:27:00;;;;;;;2.33;1.50;;;20.30;1.00;;;;;;5024824;28;20737;-73
2023/08/05 09:29:27;;;;;;;3.25;1.88;;;20.30;1.00;;;;;;5023592;28;20214;-73
2023/08/05 09:31:58;;;;;;;3.10;1.90;;;20.10;1.00;;;;;;5018971;28;20187;-72
2023/08/05 09:34:49;;;;;;;2.38;1.73;;;20.20;1.00;;;;;;5024183;28;20232;-73
2023/08/05 09:37:15;;;;;;;3.25;1.85;;;20.40;1.00;;;;;;5013322;28;20681;-73
2023/08/05 09:39:46;;;;;;;1.60;1.50;;;20.50;1.00;;;;;;5025514;28;20197;-73
2023/08/05 09:42:21;;;;;;;3.60;1.77;;;20.70;1.00;;;;;;5025366;28;20214;-72
2023/08/05 09:44:57;;;;;;;3.80;1.73;;;20.80;1.00;;;;;;5025919;28;20193;-73
2023/08/05 09:47:29;;;;;;;3.67;1.60;;;20.80;1.00;;;;;;5019670;28;20561;-73
2023/08/05 09:49:56;;;;;;;2.35;1.42;;;21.10;1.00;;;;;;5025018;28;20183;-73
2023/08/05 09:52:23;;;;;;;2.95;1.90;;;21.50;1.00;;;;;;5026130;28;20182;-73
2023/08/05 09:55:12;;;;;;;2.13;1.42;;;21.40;1.00;;;;;;5026106;28;20260;-74
2023/08/05 09:57:38;;;;;;;4.32;1.70;;;21.50;1.00;;;;;;5041122;28;20210;-73
2023/08/05 10:00:10;;;;;;;3.13;1.73;;;21.70;1.00;;;;;;5026562;28;20210;-73
2023/08/05 10:02:36;;;;;;;3.25;1.40;;;21.90;1.00;;;;;;5025911;28;20194;-73
2023/08/05 10:05:03;;;;;;;1.60;1.30;;;22.00;99.90;;;;;;5028539;28;20182;-73
2023/08/05 10:07:29;;;;;;;9.43;2.13;;;22.10;99.90;;;;;;5025849;28;20215;-73
2023/08/05 10:09:56;;;;;;;4.28;1.38;;;22.20;99.90;;;;;;5026687;28;20183;-73
2023/08/05 10:12:29;;;;;;;2.30;1.48;;;22.30;99.90;;;;;;5026123;28;20236;-73
2023/08/05 10:14:56;;;;;;;2.33;1.42;;;22.10;99.90;;;;;;5024420;28;20183;-73
2023/08/05 10:17:23;;;;;;;4.03;1.90;;;22.30;99.90;;;;;;5025124;28;20250;-72
2023/08/05 10:19:52;;;;;;;2.95;1.50;;;22.40;99.90;;;;;;5025967;28;20194;-73
2023/08/05 10:22:25;;;;;;;1.63;1.20;;;22.40;99.90;;;;;;5025219;28;20191;-71
2023/08/05 10:24:58;;;;;;;2.65;1.60;;;22.20;99.90;;;;;;5024457;28;20665;-72
2023/08/05 10:27:37;;;;;;;2.75;1.55;;;22.40;99.90;;;;;;5023800;28;20321;-72
2023/08/05 10:30:09;;;;;;;1.67;1.33;;;22.90;99.90;;;;;;5024910;28;20194;-71
2023/08/05 10:32:48;;;;;;;1.42;1.20;;;23.00;99.90;;;;;;5025326;28;20584;-71
2023/08/05 10:35:41;;;;;;;1.40;1.30;;;23.10;99.90;;;;;;5023772;28;20237;-73
2023/08/05 10:38:16;;;;;;;2.33;1.30;;;22.70;99.90;;;;;;5023774;28;20678;-72
2023/08/05 10:41:03;;;;;;;1.40;1.30;;;23.00;99.90;;;;;;5025113;28;20191;-73
2023/08/05 10:43:31;;;;;;;3.78;1.52;;;23.20;99.90;;;;;;5025553;28;20187;-75
2023/08/05 10:45:58;;;;;;;2.33;1.58;;;23.20;99.90;;;;;;5022685;28;20214;-76
2023/08/05 10:48:30;;;;;;;2.92;1.52;;;23.00;99.90;;;;;;5028048;28;20210;-75
2023/08/05 10:50:57;;;;;;;1.60;1.40;;;22.80;99.90;;;;;;5025741;28;20266;-73
2023/08/05 10:53:24;;;;;;;15.57;4.05;;;23.10;99.90;;;;;;5027359;28;20256;-71
2023/08/05 10:55:55;;;;;;;27.70;11.13;;;23.40;99.90;;;;;;5025400;28;21159;-73
2023/08/05 10:58:27;;;;;;;2.35;1.80;;;23.70;99.90;;;;;;5025851;28;20278;-71
2023/08/05 11:01:03;;;;;;;3.65;1.40;;;23.90;99.90;;;;;;5025812;28;20214;-70
2023/08/05 11:03:32;;;;;;;3.95;1.88;;;24.10;99.90;;;;;;5025447;28;20289;-72
2023/08/05 11:06:05;;;;;;;2.78;1.88;;;24.20;99.90;;;;;;5024339;28;20187;-71
2023/08/05 11:08:32;;;;;;;2.13;1.48;;;24.20;99.90;;;;;;5024840;28;20210;-72
2023/08/05 11:11:09;;;;;;;3.28;1.88;;;23.70;99.90;;;;;;5025804;28;20187;-72
2023/08/05 11:13:47;;;;;;;3.85;2.20;;;23.40;99.90;;;;;;5025464;28;20305;-72
2023/08/05 11:16:15;;;;;;;1.77;1.33;;;23.50;99.90;;;;;;5023624;28;20274;-71
2023/08/05 11:18:42;;;;;;;5.07;2.72;;;23.70;99.90;;;;;;5024157;28;20179;-71
2023/08/05 11:21:10;;;;;;;2.05;1.23;;;24.00;99.90;;;;;;5024604;28;20236;-72
2023/08/05 11:23:40;;;;;;;1.58;1.42;;;23.70;99.90;;;;;;5023081;28;20672;-72
2023/08/05 11:26:07;;;;;;;2.88;1.92;;;23.90;99.90;;;;;;5023977;28;20216;-71
2023/08/05 11:28:34;;;;;;;1.98;1.40;;;23.90;99.90;;;;;;5024706;28;20215;-71
2023/08/05 11:31:01;;;;;;;2.53;1.48;;;23.60;99.90;;;;;;5024107;28;20203;-72
2023/08/05 11:33:30;;;;;;;2.45;1.48;;;23.60;99.90;;;;;;5023196;28;20179;-71
2023/08/05 11:35:56;;;;;;;2.15;1.52;;;23.70;99.90;;;;;;5024734;28;20183;-72
2023/08/05 11:38:23;;;;;;;2.08;1.40;;;23.30;99.90;;;;;;5022344;28;20278;-72
2023/08/05 11:40:52;;;;;;;1.70;1.30;;;23.20;99.90;;;;;;5022043;28;20286;-72
2023/08/05 11:43:19;;;;;;;3.33;2.92;;;23.20;99.90;;;;;;5023715;28;20213;-72
2023/08/05 11:45:46;;;;;;;3.38;1.58;;;23.30;99.90;;;;;;5019658;28;20661;-72
2023/08/05 11:48:25;;;;;;;2.03;1.40;;;23.30;99.90;;;;;;5019003;28;20703;-71
2023/08/05 11:51:03;;;;;;;3.55;1.60;;;23.60;99.90;;;;;;5020640;28;20182;-71
2023/08/05 11:53:29;;;;;;;2.05;1.30;;;23.50;99.90;;;;;;5020862;28;20251;-71
2023/08/05 11:55:58;;;;;;;2.50;1.42;;;23.10;99.90;;;;;;5021685;28;20202;-70
2023/08/05 11:58:32;;;;;;;2.45;1.30;;;23.20;99.90;;;;;;5022870;28;20190;-70
2023/08/05 12:01:04;;;;;;;2.92;1.25;;;23.00;99.90;;;;;;5024167;28;20178;-70
2023/08/05 12:03:33;;;;;;;2.05;1.50;;;23.30;99.90;;;;;;5024287;28;20689;-71
2023/08/05 12:06:03;;;;;;;1.50;1.40;;;23.20;99.90;;;;;;5022998;28;20214;-71
2023/08/05 12:08:44;;;;;;;2.38;1.88;;;23.30;99.90;;;;;;5023005;28;20297;-71
2023/08/05 12:11:12;;;;;;;2.08;1.38;;;23.60;99.90;;;;;;5023787;28;20178;-71
2023/08/05 12:13:38;;;;;;;2.25;1.50;;;23.60;99.90;;;;;;5024164;28;20187;-71
2023/08/05 12:16:15;;;;;;;1.63;1.27;;;23.30;99.90;;;;;;5023238;28;20203;-71
2023/08/05 12:18:45;;;;;;;1.75;1.35;;;23.30;99.90;;;;;;5023768;28;20186;-71
2023/08/05 12:21:12;;;;;;;1.75;1.20;;;23.40;99.90;;;;;;5023490;28;20195;-71
2023/08/05 12:23:41;;;;;;;3.50;1.40;;;23.50;99.90;;;;;;5024159;28;20608;-71
2023/08/05 12:26:10;;;;;;;3.53;1.67;;;23.30;99.90;;;;;;5023046;28;20207;-70
2023/08/05 12:28:37;;;;;;;1.45;1.10;;;23.50;99.90;;;;;;5024200;28;20213;-71
2023/08/05 12:31:03;;;;;;;1.20;1.10;;;23.50;99.90;;;;;;5022985;28;20187;-71
2023/08/05 12:33:29;;;;;;;2.90;1.50;;;23.30;99.90;;;;;;5023609;28;20183;-71
2023/08/05 12:35:55;;;;;;;1.77;1.30;;;23.10;99.90;;;;;;5023269;28;20182;-71
2023/08/05 12:38:21;;;;;;;1.88;1.40;;;23.00;99.90;;;;;;5024206;28;20191;-70
2023/08/05 12:40:46;;;;;;;2.55;1.48;;;23.20;99.90;;;;;;5024480;28;20575;-71
2023/08/05 12:43:12;;;;;;;3.47;1.60;;;23.20;99.90;;;;;;5023501;28;20183;-71
2023/08/05 12:45:38;;;;;;;2.88;1.40;;;23.10;99.90;;;;;;5025336;28;20190;-74
2023/08/05 12:48:04;;;;;;;3.20;1.35;;;22.90;99.90;;;;;;5027722;28;20738;-70
2023/08/05 12:50:30;;;;;;;1.77;1.33;;;23.00;99.90;;;;;;5027890;28;20188;-71